Terminal Aerodrome Forecast
Issued by NWS

Home | Current Version | Previous Version | Text Only | Print | Product List | Glossary On
Versions: 1 2 3 4 5 6 7 8 9 10 11 12 13 14 15
000
FTUS46 KPDT 252320
TAFRDM
TAF
KRDM 252320Z 2600/2624 21008KT P6SM -SHRA SCT040 OVC060
     FM260400 20010KT P6SM FEW040 BKN060
     FM261200 20012KT 5SM -RA BKN025 OVC040
     FM261900 30020G30KT P6SM SCT050=

USA.gov is the U.S. government's official web portal to all federal, state and local government web resources and services.